Time;durP1;ratioP1;P1;durP2;ratioP2;P2;SDS_P1;SDS_P2;PMS_P1;PMS_P2;Temp;Humidity;BMP_temperature;BMP_pressure;BME280_temperature;BME280_humidity;BME280_pressure;Samples;Min_cycle;Max_cycle;Signal;HPM_P1;HPM_P2
2023/06/14 00:00:43;;;;;;;3.50;3.30;;;15.50;99.90;;;;;;5053523;28;20204;-82
2023/06/14 00:03:11;;;;;;;2.87;2.67;;;15.60;99.90;;;;;;5054748;28;20287;-81
2023/06/14 00:05:40;;;;;;;3.10;2.90;;;15.50;99.90;;;;;;5056341;28;20179;-82
2023/06/14 00:08:07;;;;;;;2.93;2.73;;;15.40;99.90;;;;;;5036208;28;20180;-81
2023/06/14 00:10:35;;;;;;;3.00;2.80;;;15.50;99.90;;;;;;5053746;28;20682;-83
2023/06/14 00:13:04;;;;;;;2.90;2.70;;;15.50;99.90;;;;;;5053401;28;20647;-81
2023/06/14 00:15:31;;;;;;;3.40;2.77;;;15.60;99.90;;;;;;5053449;28;20179;-81
2023/06/14 00:18:03;;;;;;;2.87;2.70;;;15.70;99.90;;;;;;5052918;28;20271;-84
2023/06/14 00:20:30;;;;;;;3.10;3.00;;;15.60;99.90;;;;;;5053805;28;20212;-82
2023/06/14 00:22:56;;;;;;;2.73;2.63;;;15.60;99.90;;;;;;5053313;28;20179;-81
2023/06/14 00:25:25;;;;;;;3.37;3.17;;;15.50;99.90;;;;;;5053583;28;20198;-81
2023/06/14 00:27:52;;;;;;;3.20;2.83;;;15.50;99.90;;;;;;5065313;28;20168;-81
2023/06/14 00:30:19;;;;;;;2.93;2.73;;;15.60;99.90;;;;;;5053142;28;20175;-81
2023/06/14 00:32:45;;;;;;;3.23;3.03;;;15.60;99.90;;;;;;5035006;28;20181;-81
2023/06/14 00:35:11;;;;;;;2.90;2.70;;;15.60;99.90;;;;;;5053150;28;20180;-81
2023/06/14 00:37:37;;;;;;;2.87;2.70;;;15.60;99.90;;;;;;5058454;28;20187;-81
2023/06/14 00:40:04;;;;;;;2.77;2.67;;;15.60;99.90;;;;;;5062363;28;20232;-81
2023/06/14 00:42:30;;;;;;;2.70;2.60;;;15.60;99.90;;;;;;5053187;28;20225;-80
2023/06/14 00:44:56;;;;;;;3.40;3.10;;;15.60;99.90;;;;;;5052860;28;20167;-80
2023/06/14 00:47:22;;;;;;;2.73;2.63;;;15.50;99.90;;;;;;5052478;28;20175;-81
2023/06/14 00:49:50;;;;;;;2.80;2.60;;;15.60;99.90;;;;;;5052864;28;20172;-79
2023/06/14 00:52:17;;;;;;;2.80;2.60;;;15.60;99.90;;;;;;5031145;28;20231;-80
2023/06/14 00:54:43;;;;;;;3.00;2.80;;;15.60;99.90;;;;;;5032965;28;20207;-80
2023/06/14 00:57:13;;;;;;;3.67;2.73;;;15.60;99.90;;;;;;5032276;28;20227;-81
2023/06/14 00:59:47;;;;;;;3.67;2.77;;;15.50;99.90;;;;;;5032640;28;20206;-80
2023/06/14 01:02:14;;;;;;;2.77;2.57;;;15.50;99.90;;;;;;5032827;28;20184;-84
2023/06/14 01:04:45;;;;;;;2.90;2.80;;;15.50;99.90;;;;;;5033518;28;20181;-82
2023/06/14 01:07:48;;;;;;;2.90;2.80;;;15.50;99.90;;;;;;5031934;28;20180;-82
2023/06/14 01:10:23;;;;;;;2.70;2.60;;;15.50;99.90;;;;;;5031237;28;20239;-81
2023/06/14 01:13:08;;;;;;;2.90;2.60;;;15.50;99.90;;;;;;5032860;28;20156;-81
2023/06/14 01:15:35;;;;;;;3.00;2.80;;;15.50;99.90;;;;;;5033611;28;20296;-80
2023/06/14 01:18:04;;;;;;;3.17;2.87;;;15.50;99.90;;;;;;5030859;28;20776;-81
2023/06/14 01:20:32;;;;;;;3.53;2.97;;;15.50;99.90;;;;;;5032941;28;20205;-81
2023/06/14 01:22:58;;;;;;;2.90;2.70;;;15.40;99.90;;;;;;5032785;28;20165;-82
2023/06/14 01:25:25;;;;;;;4.30;3.00;;;15.50;99.90;;;;;;5033138;28;20173;-80
2023/06/14 01:28:02;;;;;;;3.03;2.83;;;15.50;99.90;;;;;;5033926;28;20199;-84
2023/06/14 01:30:30;;;;;;;2.90;2.70;;;15.60;99.90;;;;;;5032537;28;20168;-80
2023/06/14 01:32:57;;;;;;;4.10;2.97;;;15.50;99.90;;;;;;5032194;28;20170;-81
2023/06/14 01:35:24;;;;;;;3.37;3.17;;;15.40;99.90;;;;;;5032443;28;20173;-81
2023/06/14 01:37:51;;;;;;;3.20;2.90;;;15.50;99.90;;;;;;5031965;28;20665;-81
2023/06/14 01:40:18;;;;;;;3.30;3.10;;;15.40;99.90;;;;;;5032960;28;20248;-82
2023/06/14 01:42:47;;;;;;;2.33;2.20;;;15.40;99.90;;;;;;5033094;28;20165;-81
2023/06/14 01:45:14;;;;;;;2.83;2.70;;;15.30;99.90;;;;;;5031819;28;20185;-81
2023/06/14 01:47:40;;;;;;;2.87;2.77;;;15.20;99.90;;;;;;5032876;28;20212;-81
2023/06/14 01:50:06;;;;;;;2.70;2.50;;;15.10;99.90;;;;;;5031623;28;20175;-82
2023/06/14 01:52:32;;;;;;;2.87;2.67;;;15.10;99.90;;;;;;5053539;28;20219;-81
2023/06/14 01:54:58;;;;;;;2.90;2.80;;;15.30;99.90;;;;;;5054499;28;20187;-81
2023/06/14 01:57:26;;;;;;;3.00;2.90;;;15.30;99.90;;;;;;5035163;28;20546;-81
2023/06/14 01:59:52;;;;;;;3.17;2.97;;;15.20;99.90;;;;;;5036784;28;20207;-81
2023/06/14 02:02:18;;;;;;;3.00;2.80;;;15.20;99.90;;;;;;5056526;28;20187;-80
2023/06/14 02:04:46;;;;;;;3.00;2.80;;;15.10;99.90;;;;;;5064171;28;20176;-81
2023/06/14 02:07:12;;;;;;;3.43;3.23;;;15.10;99.90;;;;;;5035896;28;20237;-80
2023/06/14 02:09:37;;;;;;;3.27;3.07;;;15.10;99.90;;;;;;5037090;28;20188;-81
2023/06/14 02:12:03;;;;;;;3.60;3.20;;;15.00;99.90;;;;;;5054687;28;20619;-81
2023/06/14 02:14:29;;;;;;;2.90;2.80;;;14.90;99.90;;;;;;5061935;28;20203;-80
2023/06/14 02:16:56;;;;;;;2.80;2.60;;;15.00;99.90;;;;;;5061300;28;20190;-81
2023/06/14 02:19:23;;;;;;;2.90;2.70;;;14.90;99.90;;;;;;5056329;28;20203;-81
2023/06/14 02:21:49;;;;;;;3.20;3.00;;;14.80;99.90;;;;;;5058836;28;20199;-80
2023/06/14 02:24:15;;;;;;;3.23;3.03;;;14.70;99.90;;;;;;5040386;28;20252;-79
2023/06/14 02:26:41;;;;;;;3.17;2.97;;;14.70;99.90;;;;;;5040395;28;20223;-80
2023/06/14 02:29:12;;;;;;;3.20;2.90;;;14.70;99.90;;;;;;5056203;28;20172;-81
2023/06/14 02:31:38;;;;;;;3.30;2.97;;;14.60;99.90;;;;;;5057792;28;20195;-81
2023/06/14 02:34:04;;;;;;;3.10;2.70;;;14.70;99.90;;;;;;5059381;28;20168;-80
2023/06/14 02:36:30;;;;;;;3.03;2.83;;;14.70;99.90;;;;;;5059107;28;20526;-80
2023/06/14 02:38:57;;;;;;;2.80;2.60;;;14.80;99.90;;;;;;5057700;28;20164;-81
2023/06/14 02:41:26;;;;;;;4.20;3.40;;;14.80;99.90;;;;;;5038846;28;20241;-83
2023/06/14 02:43:53;;;;;;;3.20;3.00;;;14.70;99.90;;;;;;5057525;28;20182;-81
2023/06/14 02:46:18;;;;;;;3.97;2.73;;;14.70;99.90;;;;;;5058182;28;20620;-79
2023/06/14 02:48:45;;;;;;;2.97;2.77;;;14.70;99.90;;;;;;5057528;28;20178;-81
2023/06/14 02:51:12;;;;;;;3.47;3.27;;;14.70;99.90;;;;;;5060721;28;20238;-80
2023/06/14 02:53:38;;;;;;;3.60;2.70;;;14.60;99.90;;;;;;5057270;28;20704;-80
2023/06/14 02:56:05;;;;;;;3.10;2.90;;;14.60;99.90;;;;;;5058425;28;20175;-80
2023/06/14 02:58:31;;;;;;;3.00;2.80;;;14.50;99.90;;;;;;5058265;28;20705;-83
2023/06/14 03:00:56;;;;;;;2.83;2.73;;;14.60;99.90;;;;;;5066720;22;20273;-83
2023/06/14 03:03:24;;;;;;;4.07;2.97;;;14.70;99.90;;;;;;5024157;28;20270;-81
2023/06/14 03:05:51;;;;;;;3.10;2.90;;;14.60;99.90;;;;;;5060207;28;20176;-82
2023/06/14 03:08:24;;;;;;;2.93;2.73;;;14.60;99.90;;;;;;5059700;28;20168;-82
2023/06/14 03:10:51;;;;;;;3.30;3.03;;;14.60;99.90;;;;;;5063708;28;20168;-81
2023/06/14 03:13:21;;;;;;;3.40;2.83;;;14.70;99.90;;;;;;5063911;28;20172;-81
2023/06/14 03:15:50;;;;;;;2.90;2.80;;;14.70;99.90;;;;;;5061039;28;20250;-81
2023/06/14 03:18:16;;;;;;;3.17;2.97;;;14.80;99.90;;;;;;5063767;28;20178;-82
2023/06/14 03:20:42;;;;;;;3.23;2.90;;;14.90;99.90;;;;;;5075961;28;20250;-82
2023/06/14 03:23:08;;;;;;;4.37;2.90;;;14.90;99.90;;;;;;5080066;28;20160;-82
2023/06/14 03:25:35;;;;;;;3.47;2.83;;;14.80;99.90;;;;;;5080129;28;20159;-83
2023/06/14 03:28:05;;;;;;;3.43;3.03;;;14.90;99.90;;;;;;5075310;28;20182;-79
2023/06/14 03:30:31;;;;;;;3.03;2.80;;;14.90;99.90;;;;;;5065382;28;20168;-82
2023/06/14 03:32:57;;;;;;;3.37;2.90;;;14.80;99.90;;;;;;5064866;28;20201;-80
2023/06/14 03:35:23;;;;;;;3.00;2.80;;;14.70;99.90;;;;;;5052326;28;20191;-81
2023/06/14 03:37:49;;;;;;;3.40;3.03;;;14.80;99.90;;;;;;5039966;28;20237;-81
2023/06/14 03:40:18;;;;;;;3.10;2.90;;;14.80;99.90;;;;;;5067150;28;20203;-81
2023/06/14 03:42:44;;;;;;;3.17;2.90;;;14.70;99.90;;;;;;5039061;28;20179;-81
2023/06/14 03:45:10;;;;;;;3.30;3.00;;;14.70;99.90;;;;;;5056452;28;20168;-81
2023/06/14 03:47:36;;;;;;;3.10;2.80;;;14.70;99.90;;;;;;5039047;28;20559;-81
2023/06/14 03:50:04;;;;;;;3.03;2.80;;;14.70;99.90;;;;;;5058448;28;20168;-82
2023/06/14 03:52:33;;;;;;;2.90;2.70;;;14.70;99.90;;;;;;5069043;28;20214;-82
2023/06/14 03:55:00;;;;;;;4.30;2.60;;;14.80;99.90;;;;;;5039591;28;20180;-82
2023/06/14 03:57:26;;;;;;;3.80;3.50;;;14.90;99.90;;;;;;5055797;28;20194;-83
2023/06/14 03:59:52;;;;;;;5.70;2.77;;;14.90;99.90;;;;;;5038858;28;20207;-81
2023/06/14 04:02:17;;;;;;;2.80;2.60;;;14.80;99.90;;;;;;5057121;28;20219;-81
2023/06/14 04:04:45;;;;;;;3.80;3.50;;;14.90;99.90;;;;;;5055394;28;20164;-82
2023/06/14 04:07:15;;;;;;;3.50;3.13;;;14.90;99.90;;;;;;5038066;28;20531;-82
2023/06/14 04:09:41;;;;;;;3.37;3.07;;;15.00;99.90;;;;;;5038308;28;20190;-81
2023/06/14 04:12:08;;;;;;;3.10;2.80;;;15.00;99.90;;;;;;5056695;28;20175;-81
2023/06/14 04:14:35;;;;;;;3.50;3.30;;;15.00;99.90;;;;;;5055960;28;20176;-81
2023/06/14 04:17:01;;;;;;;2.67;2.50;;;15.00;99.90;;;;;;5056222;28;20179;-80
2023/06/14 04:19:27;;;;;;;4.83;2.83;;;15.10;99.90;;;;;;5036086;28;20202;-82
2023/06/14 04:21:52;;;;;;;3.20;3.00;;;15.10;99.90;;;;;;5054046;28;20266;-82
2023/06/14 04:24:19;;;;;;;3.00;2.80;;;15.10;99.90;;;;;;5036394;28;20667;-81
2023/06/14 04:26:47;;;;;;;4.03;3.20;;;15.10;99.90;;;;;;5056373;28;20168;-81
2023/06/14 04:29:16;;;;;;;3.50;3.30;;;15.10;99.90;;;;;;5057027;28;20667;-80
2023/06/14 04:31:46;;;;;;;3.50;3.20;;;15.20;99.90;;;;;;5055961;28;20196;-81
2023/06/14 04:34:16;;;;;;;5.77;2.83;;;15.20;99.90;;;;;;5052677;28;20791;-82
2023/06/14 04:36:48;;;;;;;3.50;3.30;;;15.20;99.90;;;;;;5054466;28;20183;-81
2023/06/14 04:39:17;;;;;;;3.93;2.93;;;15.30;99.90;;;;;;5053062;28;20190;-80
2023/06/14 04:41:44;;;;;;;3.50;3.30;;;15.20;99.90;;;;;;5070333;28;20200;-82
2023/06/14 04:44:12;;;;;;;5.00;3.20;;;15.30;99.90;;;;;;5038936;28;20176;-80
2023/06/14 04:46:45;;;;;;;3.60;3.40;;;15.20;99.90;;;;;;5055184;28;20187;-80
2023/06/14 04:49:18;;;;;;;3.17;2.97;;;15.20;99.90;;;;;;5054238;28;20165;-81
2023/06/14 04:51:46;;;;;;;3.07;2.80;;;15.20;99.90;;;;;;5055848;28;20184;-80
2023/06/14 04:54:15;;;;;;;3.60;3.30;;;15.20;99.90;;;;;;5056376;28;20229;-81
2023/06/14 04:56:44;;;;;;;3.40;3.20;;;15.30;99.90;;;;;;5057236;28;20686;-81
2023/06/14 04:59:14;;;;;;;3.33;3.03;;;15.30;99.90;;;;;;5060174;28;20177;-80
2023/06/14 05:01:40;;;;;;;3.37;3.17;;;15.20;99.90;;;;;;5062685;28;20315;-79
2023/06/14 05:04:06;;;;;;;3.67;3.37;;;15.20;99.90;;;;;;5066270;28;20176;-80
2023/06/14 05:06:32;;;;;;;3.37;3.10;;;15.20;99.90;;;;;;5040826;28;20184;-80
2023/06/14 05:08:58;;;;;;;3.40;3.10;;;15.30;99.90;;;;;;5059996;28;20164;-82
2023/06/14 05:11:24;;;;;;;3.00;2.80;;;15.40;99.90;;;;;;5057077;28;20171;-81
2023/06/14 05:13:51;;;;;;;4.33;3.50;;;15.40;99.90;;;;;;5057092;28;20175;-81
2023/06/14 05:16:19;;;;;;;3.77;3.47;;;15.50;99.90;;;;;;5061170;28;20191;-81
2023/06/14 05:18:47;;;;;;;5.33;3.00;;;15.60;99.90;;;;;;5056932;28;20202;-82
2023/06/14 05:21:13;;;;;;;4.27;3.20;;;15.60;99.90;;;;;;5057873;28;20770;-81
2023/06/14 05:23:38;;;;;;;3.57;3.27;;;15.60;99.90;;;;;;5056689;28;20262;-82
2023/06/14 05:26:06;;;;;;;3.77;3.20;;;15.60;99.90;;;;;;5039094;28;20181;-82
2023/06/14 05:28:32;;;;;;;3.50;3.30;;;15.50;99.90;;;;;;5048738;28;20185;-81
2023/06/14 05:30:58;;;;;;;3.70;3.40;;;15.50;99.90;;;;;;5040283;28;20241;-81
2023/06/14 05:33:24;;;;;;;3.40;3.10;;;15.60;99.90;;;;;;5057622;28;20165;-82
2023/06/14 05:35:50;;;;;;;3.17;2.97;;;15.60;99.90;;;;;;5040620;28;20270;-82
2023/06/14 05:38:15;;;;;;;3.60;3.33;;;15.60;99.90;;;;;;5055690;28;20194;-81
2023/06/14 05:40:41;;;;;;;3.20;3.00;;;15.60;99.90;;;;;;5056337;28;20302;-80
2023/06/14 05:43:07;;;;;;;3.17;2.97;;;15.50;99.90;;;;;;5055980;28;20657;-81
2023/06/14 05:45:32;;;;;;;3.33;3.13;;;15.60;99.90;;;;;;5055273;28;20184;-81
2023/06/14 05:47:58;;;;;;;3.73;3.53;;;15.60;99.90;;;;;;5038504;28;20186;-80
2023/06/14 05:50:24;;;;;;;3.33;3.13;;;15.60;99.90;;;;;;5056401;28;20564;-80
2023/06/14 05:52:50;;;;;;;3.37;3.17;;;15.70;99.90;;;;;;5058194;28;20180;-81
2023/06/14 05:55:17;;;;;;;3.90;3.47;;;15.70;99.90;;;;;;5060741;28;20249;-81
2023/06/14 05:57:42;;;;;;;3.30;3.10;;;15.70;99.90;;;;;;5060405;28;20217;-81
2023/06/14 06:00:14;;;;;;;4.20;3.13;;;15.70;99.90;;;;;;5040907;28;20709;-82
2023/06/14 06:02:42;;;;;;;3.50;3.30;;;15.60;99.90;;;;;;5068466;28;20190;-80
2023/06/14 06:05:08;;;;;;;3.33;3.00;;;15.70;99.90;;;;;;5065153;28;20168;-81
2023/06/14 06:07:34;;;;;;;4.07;3.77;;;15.60;99.90;;;;;;5062273;28;20183;-81
2023/06/14 06:10:00;;;;;;;3.53;3.33;;;15.60;99.90;;;;;;5066414;28;20172;-79
2023/06/14 06:12:25;;;;;;;5.10;3.50;;;15.60;99.90;;;;;;5061630;28;20203;-82
2023/06/14 06:14:52;;;;;;;3.53;3.27;;;15.60;99.90;;;;;;5060636;28;20221;-79
2023/06/14 06:17:20;;;;;;;5.37;3.57;;;15.60;99.90;;;;;;5060333;28;20173;-83
2023/06/14 06:19:45;;;;;;;3.70;3.40;;;15.60;99.90;;;;;;5060509;28;20172;-82
2023/06/14 06:22:18;;;;;;;3.90;3.60;;;15.50;99.90;;;;;;5059591;28;20179;-81
2023/06/14 06:24:45;;;;;;;5.20;3.47;;;15.50;99.90;;;;;;5041860;28;20172;-81
2023/06/14 06:27:12;;;;;;;3.80;3.50;;;15.60;99.90;;;;;;5053958;28;20188;-81
2023/06/14 06:29:38;;;;;;;3.43;3.23;;;15.70;99.90;;;;;;5050285;28;20640;-80
2023/06/14 06:32:04;;;;;;;6.30;3.43;;;15.80;99.90;;;;;;5058773;28;20179;-81
2023/06/14 06:34:30;;;;;;;3.90;3.60;;;15.80;99.90;;;;;;5059880;28;20194;-80
2023/06/14 06:36:56;;;;;;;3.70;3.50;;;15.80;99.90;;;;;;5060428;28;20194;-82
2023/06/14 06:39:22;;;;;;;3.83;3.47;;;15.80;99.90;;;;;;5060419;28;20233;-80
2023/06/14 06:41:47;;;;;;;3.33;3.03;;;15.70;99.90;;;;;;5040040;28;20218;-80
2023/06/14 06:44:13;;;;;;;3.50;3.20;;;15.60;99.90;;;;;;5042145;28;20183;-82
2023/06/14 06:46:40;;;;;;;3.30;3.10;;;15.60;99.90;;;;;;5058370;28;20180;-80
2023/06/14 06:49:11;;;;;;;3.50;3.07;;;15.60;99.90;;;;;;5040860;28;20229;-82
2023/06/14 06:51:41;;;;;;;3.43;3.23;;;15.60;99.90;;;;;;5058450;28;20570;-81
2023/06/14 06:54:08;;;;;;;3.00;2.80;;;15.60;99.90;;;;;;5066365;28;20586;-81
2023/06/14 06:56:34;;;;;;;2.97;2.77;;;15.70;99.90;;;;;;5064031;28;20175;-82
2023/06/14 06:59:00;;;;;;;3.70;3.13;;;15.80;99.90;;;;;;5067685;28;20175;-82
2023/06/14 07:01:28;;;;;;;3.57;3.27;;;15.90;99.90;;;;;;5058440;28;20228;-82
2023/06/14 07:03:54;;;;;;;2.80;2.60;;;15.90;99.90;;;;;;5040927;28;20182;-81
2023/06/14 07:06:22;;;;;;;3.30;3.10;;;15.90;99.90;;;;;;5074432;28;20176;-81
2023/06/14 07:08:48;;;;;;;2.90;2.70;;;15.90;99.90;;;;;;5049286;28;20219;-80
2023/06/14 07:11:14;;;;;;;3.60;3.40;;;15.90;99.90;;;;;;5058643;28;20542;-81
2023/06/14 07:13:40;;;;;;;3.40;3.20;;;15.90;99.90;;;;;;5055127;28;20177;-82
2023/06/14 07:16:06;;;;;;;3.23;3.03;;;15.90;99.90;;;;;;5055289;28;20183;-81
2023/06/14 07:18:32;;;;;;;4.90;2.93;;;15.90;99.90;;;;;;5054906;28;20554;-80
2023/06/14 07:20:58;;;;;;;3.10;2.90;;;15.80;99.90;;;;;;5040206;28;20226;-83
2023/06/14 07:23:23;;;;;;;3.13;2.93;;;15.80;99.90;;;;;;5057865;28;20254;-81
2023/06/14 07:25:49;;;;;;;3.10;2.90;;;15.70;99.90;;;;;;5057442;28;20654;-82
2023/06/14 07:28:17;;;;;;;5.43;2.97;;;15.60;99.90;;;;;;5039605;28;20207;-80
2023/06/14 07:30:43;;;;;;;5.13;3.50;;;15.60;99.90;;;;;;5038539;28;20182;-81
2023/06/14 07:33:10;;;;;;;3.23;3.03;;;15.60;99.90;;;;;;5056389;28;20172;-79
2023/06/14 07:35:35;;;;;;;3.70;3.40;;;15.50;99.90;;;;;;5057737;28;20172;-79
2023/06/14 07:38:01;;;;;;;4.10;3.70;;;15.50;99.90;;;;;;5057108;28;20179;-79
2023/06/14 07:40:27;;;;;;;3.47;3.17;;;15.40;99.90;;;;;;5038927;28;20726;-81
2023/06/14 07:42:54;;;;;;;3.37;3.17;;;15.50;99.90;;;;;;5038631;28;20201;-79
2023/06/14 07:45:23;;;;;;;3.50;3.30;;;15.50;99.90;;;;;;5057248;28;20173;-81
2023/06/14 07:47:49;;;;;;;3.70;3.30;;;15.60;99.90;;;;;;5057450;28;20176;-80
2023/06/14 07:50:15;;;;;;;3.47;3.27;;;15.60;99.90;;;;;;5054027;28;20524;-80
2023/06/14 07:52:41;;;;;;;3.70;3.40;;;15.50;99.90;;;;;;5054084;28;20176;-81
2023/06/14 07:55:07;;;;;;;3.50;3.30;;;15.50;99.90;;;;;;5054237;28;20183;-81
2023/06/14 07:57:33;;;;;;;3.40;3.20;;;15.40;99.90;;;;;;5053882;28;20246;-79
2023/06/14 07:59:59;;;;;;;3.57;3.27;;;15.40;99.90;;;;;;5053968;28;20232;-79
2023/06/14 08:02:24;;;;;;;3.80;3.60;;;15.50;99.90;;;;;;5053967;28;20225;-79
2023/06/14 08:04:50;;;;;;;3.57;3.33;;;15.50;99.90;;;;;;5062087;28;20180;-80
2023/06/14 08:07:16;;;;;;;3.60;3.30;;;15.40;99.90;;;;;;5058297;28;20270;-79
2023/06/14 08:09:42;;;;;;;3.63;3.33;;;15.30;99.90;;;;;;5036316;28;20179;-81
2023/06/14 08:12:09;;;;;;;3.90;3.20;;;15.30;99.90;;;;;;5052965;28;20579;-81
2023/06/14 08:14:35;;;;;;;3.97;3.67;;;15.40;99.90;;;;;;5052961;28;20164;-80
2023/06/14 08:17:01;;;;;;;3.93;3.53;;;15.20;99.90;;;;;;5053267;28;20176;-80
2023/06/14 08:19:27;;;;;;;4.77;3.40;;;15.30;99.90;;;;;;5053874;28;20180;-82
2023/06/14 08:21:55;;;;;;;3.70;3.40;;;14.90;99.90;;;;;;5053907;28;20194;-83
2023/06/14 08:24:29;;;;;;;4.17;3.63;;;15.50;99.90;;;;;;5054575;28;20580;-81
2023/06/14 08:26:56;;;;;;;5.87;3.80;;;15.40;99.90;;;;;;5059990;28;20167;-80
2023/06/14 08:29:22;;;;;;;4.10;3.80;;;15.30;99.90;;;;;;5071395;28;20172;-79
2023/06/14 08:31:47;;;;;;;4.33;3.93;;;15.30;99.90;;;;;;5058481;28;20237;-81
2023/06/14 08:34:13;;;;;;;4.60;3.40;;;15.10;99.90;;;;;;5075758;28;20189;-81
2023/06/14 08:36:39;;;;;;;3.70;3.40;;;15.20;99.90;;;;;;5059908;28;20192;-80
2023/06/14 08:39:05;;;;;;;4.00;3.70;;;15.20;99.90;;;;;;5072650;28;20189;-82
2023/06/14 08:41:32;;;;;;;3.60;3.30;;;15.10;99.90;;;;;;5065118;28;20199;-79
2023/06/14 08:43:59;;;;;;;4.63;4.03;;;14.90;99.90;;;;;;5059613;28;20179;-81
2023/06/14 08:46:27;;;;;;;4.53;3.83;;;14.80;99.90;;;;;;5056801;28;20180;-82
2023/06/14 08:48:56;;;;;;;4.33;3.93;;;14.90;99.90;;;;;;5057297;28;20174;-82
2023/06/14 08:51:26;;;;;;;4.37;3.97;;;14.90;99.90;;;;;;5037749;28;20180;-80
2023/06/14 08:53:57;;;;;;;4.57;4.17;;;14.90;99.90;;;;;;5053886;28;20176;-80
2023/06/14 08:56:28;;;;;;;3.63;3.43;;;15.00;99.90;;;;;;5035143;28;20204;-82
2023/06/14 08:58:56;;;;;;;4.60;4.20;;;14.90;99.90;;;;;;5052084;28;20159;-80
2023/06/14 09:01:23;;;;;;;4.33;3.93;;;15.00;99.90;;;;;;5034482;28;20580;-82
2023/06/14 09:03:49;;;;;;;4.70;4.17;;;15.10;99.90;;;;;;5052855;28;20517;-81
2023/06/14 09:06:16;;;;;;;5.00;4.50;;;15.10;99.90;;;;;;5052963;28;20701;-83
2023/06/14 09:08:47;;;;;;;4.80;4.27;;;15.00;99.90;;;;;;5052777;28;20535;-81
2023/06/14 09:11:15;;;;;;;5.03;4.30;;;15.20;99.90;;;;;;5052765;28;20173;-84
2023/06/14 09:13:41;;;;;;;4.47;4.07;;;15.20;99.90;;;;;;5052685;28;20298;-81
2023/06/14 09:16:08;;;;;;;4.90;4.50;;;15.30;99.90;;;;;;5052305;28;20670;-80
2023/06/14 09:18:39;;;;;;;4.93;4.50;;;15.40;99.90;;;;;;5052754;28;20217;-81
2023/06/14 09:21:08;;;;;;;4.97;4.50;;;15.20;99.90;;;;;;5053351;28;20199;-80
2023/06/14 09:23:42;;;;;;;4.77;4.37;;;15.40;99.90;;;;;;5053277;28;20621;-81
2023/06/14 09:26:15;;;;;;;5.10;4.60;;;15.40;99.90;;;;;;5052856;28;20218;-80
2023/06/14 09:28:45;;;;;;;4.40;4.00;;;15.20;99.90;;;;;;5058703;28;20156;-80
2023/06/14 09:31:19;;;;;;;3.83;3.63;;;15.20;99.90;;;;;;5059450;28;20172;-81
2023/06/14 09:33:48;;;;;;;3.80;3.50;;;15.00;99.90;;;;;;5059171;28;20160;-80
2023/06/14 09:36:24;;;;;;;3.83;3.53;;;14.90;99.90;;;;;;5058967;28;20691;-82
2023/06/14 09:38:54;;;;;;;4.00;3.43;;;14.80;99.90;;;;;;5059548;28;20266;-81
2023/06/14 09:41:20;;;;;;;4.43;3.50;;;14.90;99.90;;;;;;5059220;28;20308;-82
2023/06/14 09:43:47;;;;;;;5.13;4.63;;;15.00;99.90;;;;;;5059014;28;20163;-80
2023/06/14 09:46:13;;;;;;;4.13;3.80;;;15.10;99.90;;;;;;5058775;28;20635;-80
2023/06/14 09:48:42;;;;;;;4.50;4.00;;;15.10;99.90;;;;;;5058846;28;20910;-80
2023/06/14 09:51:12;;;;;;;3.93;3.57;;;15.00;99.90;;;;;;5058838;28;20264;-81
2023/06/14 09:53:40;;;;;;;3.47;3.27;;;15.00;99.90;;;;;;5058744;28;20230;-81
2023/06/14 09:56:06;;;;;;;3.90;3.60;;;15.00;99.90;;;;;;5058882;28;20240;-82
2023/06/14 09:58:36;;;;;;;4.70;3.97;;;14.90;99.90;;;;;;5058938;28;20169;-82
2023/06/14 10:01:03;;;;;;;3.87;3.57;;;14.90;99.90;;;;;;5060952;28;20298;-82
2023/06/14 10:03:30;;;;;;;4.10;3.80;;;14.90;99.90;;;;;;5063730;28;20595;-80
2023/06/14 10:06:01;;;;;;;3.37;3.17;;;15.10;99.90;;;;;;5070074;28;20164;-79
2023/06/14 10:08:30;;;;;;;4.00;3.43;;;15.20;99.90;;;;;;5072753;28;20157;-79
2023/06/14 10:10:56;;;;;;;3.80;3.50;;;15.10;99.90;;;;;;5063659;28;20178;-80
2023/06/14 10:13:22;;;;;;;3.80;3.50;;;15.40;99.90;;;;;;5059142;28;20179;-81
2023/06/14 10:16:17;;;;;;;3.60;3.40;;;15.40;99.90;;;;;;5058636;28;20180;-80
2023/06/14 10:18:51;;;;;;;3.40;3.10;;;15.60;99.90;;;;;;5059680;28;20180;-81
2023/06/14 10:21:32;;;;;;;4.27;3.87;;;15.70;99.90;;;;;;5060638;28;20200;-80
2023/06/14 10:24:01;;;;;;;5.07;3.70;;;15.80;99.90;;;;;;5058967;28;20243;-81
2023/06/14 10:26:27;;;;;;;3.67;3.27;;;16.10;99.90;;;;;;5058676;28;20585;-81
2023/06/14 10:29:06;;;;;;;3.57;3.27;;;16.30;99.90;;;;;;5058423;28;20164;-80
2023/06/14 10:31:44;;;;;;;3.20;3.00;;;16.40;99.90;;;;;;5058590;28;20655;-80
2023/06/14 10:34:12;;;;;;;3.47;3.23;;;16.50;99.90;;;;;;5058979;28;20172;-79
2023/06/14 10:36:41;;;;;;;3.40;3.20;;;16.50;99.90;;;;;;5059623;28;20254;-80
2023/06/14 10:39:11;;;;;;;2.90;2.70;;;16.60;99.90;;;;;;5058543;28;20171;-80
2023/06/14 10:41:38;;;;;;;3.23;2.93;;;16.70;99.90;;;;;;5057641;28;20266;-83
2023/06/14 10:44:13;;;;;;;3.20;2.90;;;16.70;99.90;;;;;;5067608;28;20188;-80
2023/06/14 10:46:55;;;;;;;3.10;2.90;;;16.80;99.90;;;;;;5057311;28;20256;-79
2023/06/14 10:49:41;;;;;;;3.10;2.90;;;17.00;99.90;;;;;;5055514;28;20165;-82
2023/06/14 10:52:18;;;;;;;3.20;3.00;;;17.30;99.90;;;;;;5055218;28;20164;-79
2023/06/14 10:55:09;;;;;;;2.90;2.57;;;17.30;99.90;;;;;;5055267;28;20163;-80
2023/06/14 10:57:40;;;;;;;3.33;3.13;;;17.50;99.90;;;;;;5054843;28;20183;-80
2023/06/14 11:00:17;;;;;;;3.10;2.90;;;17.60;99.90;;;;;;5055068;28;20198;-80
2023/06/14 11:03:31;;;;;;;3.23;3.00;;;17.90;99.90;;;;;;5055141;28;20207;-81
2023/06/14 11:05:58;;;;;;;3.10;2.97;;;17.90;99.90;;;;;;5055461;28;20527;-78
2023/06/14 11:08:45;;;;;;;3.23;2.93;;;18.00;99.90;;;;;;5054746;28;20181;-81
2023/06/14 11:11:12;;;;;;;3.37;3.17;;;18.40;99.90;;;;;;5037900;28;20178;-84
2023/06/14 11:13:44;;;;;;;3.67;2.80;;;18.40;99.90;;;;;;5056483;28;20246;-82
2023/06/14 11:16:16;;;;;;;3.20;3.00;;;18.40;99.90;;;;;;5056179;28;20263;-81
2023/06/14 11:18:45;;;;;;;2.57;2.47;;;18.40;99.90;;;;;;5054208;28;20160;-82
2023/06/14 11:21:11;;;;;;;2.80;2.60;;;18.10;99.90;;;;;;5054768;28;20204;-82
2023/06/14 11:23:37;;;;;;;2.83;2.63;;;18.20;99.90;;;;;;5055168;28;20172;-81
2023/06/14 11:26:04;;;;;;;3.00;2.80;;;18.20;99.90;;;;;;5037539;28;20172;-83
2023/06/14 11:28:40;;;;;;;2.80;2.70;;;18.40;99.90;;;;;;5055676;28;20195;-81
2023/06/14 11:31:06;;;;;;;3.30;2.90;;;18.40;99.90;;;;;;5054941;28;20164;-82
2023/06/14 11:33:32;;;;;;;3.20;3.00;;;18.50;99.90;;;;;;5054278;28;20255;-82
2023/06/14 11:35:58;;;;;;;3.33;3.03;;;18.40;99.90;;;;;;5054942;28;20254;-81
2023/06/14 11:38:26;;;;;;;2.80;2.60;;;18.40;99.90;;;;;;5053946;28;20250;-82
2023/06/14 11:40:51;;;;;;;2.93;2.60;;;18.50;99.90;;;;;;5036678;28;20298;-83
2023/06/14 11:43:18;;;;;;;3.63;3.30;;;18.60;99.90;;;;;;5062301;28;20203;-83
2023/06/14 11:45:48;;;;;;;3.00;2.80;;;18.40;99.90;;;;;;5061101;28;20179;-82
2023/06/14 11:48:14;;;;;;;3.23;3.03;;;18.30;99.90;;;;;;5036038;28;20175;-80
2023/06/14 11:50:40;;;;;;;3.50;3.20;;;18.60;99.90;;;;;;5053142;28;20167;-80
2023/06/14 11:53:07;;;;;;;3.07;2.87;;;18.70;99.90;;;;;;5053731;28;20214;-82
2023/06/14 11:55:44;;;;;;;3.00;2.70;;;18.80;99.90;;;;;;5068604;28;20168;-80
2023/06/14 11:58:10;;;;;;;2.90;2.70;;;18.80;99.90;;;;;;5057050;28;20233;-82
2023/06/14 12:00:38;;;;;;;2.73;2.60;;;18.50;99.90;;;;;;5060466;28;20284;-80
2023/06/14 12:03:03;;;;;;;3.10;2.90;;;18.60;99.90;;;;;;5062759;28;20156;-81
2023/06/14 12:05:29;;;;;;;3.37;2.90;;;18.70;99.90;;;;;;5054442;28;20172;-82
2023/06/14 12:08:05;;;;;;;3.10;2.90;;;18.90;99.90;;;;;;5035830;28;20179;-80
2023/06/14 12:10:41;;;;;;;3.90;2.70;;;18.90;99.90;;;;;;5053895;28;20691;-81
2023/06/14 12:13:07;;;;;;;3.50;3.30;;;19.00;99.90;;;;;;5053372;28;20159;-81
2023/06/14 12:15:33;;;;;;;3.47;3.17;;;19.00;99.90;;;;;;5053390;28;20179;-81
2023/06/14 12:17:59;;;;;;;3.10;2.90;;;19.00;99.90;;;;;;5053412;28;20222;-81
2023/06/14 12:20:30;;;;;;;2.70;2.60;;;18.80;99.90;;;;;;5053413;28;20699;-79
2023/06/14 12:22:58;;;;;;;3.70;2.60;;;18.70;99.90;;;;;;5054256;28;20156;-80
2023/06/14 12:25:36;;;;;;;2.80;2.70;;;18.80;99.90;;;;;;5053898;28;20184;-83
2023/06/14 12:28:06;;;;;;;2.97;2.77;;;18.80;99.90;;;;;;5054083;28;20847;-82
2023/06/14 12:30:33;;;;;;;2.83;2.53;;;18.70;99.90;;;;;;5054341;28;20667;-82
2023/06/14 12:32:59;;;;;;;2.93;2.73;;;18.90;99.90;;;;;;5055275;28;20176;-83
2023/06/14 12:35:24;;;;;;;2.90;2.70;;;18.80;99.90;;;;;;5056133;28;20187;-81
2023/06/14 12:37:51;;;;;;;3.07;2.90;;;18.60;99.90;;;;;;5048195;28;20513;-81
2023/06/14 12:40:17;;;;;;;2.63;2.53;;;18.50;99.90;;;;;;5055345;28;20207;-82
2023/06/14 12:42:44;;;;;;;2.83;2.70;;;18.60;99.90;;;;;;5056144;28;20187;-82
2023/06/14 12:45:10;;;;;;;3.27;3.03;;;18.80;99.90;;;;;;5055478;28;20258;-82
2023/06/14 12:47:36;;;;;;;3.33;2.40;;;19.00;99.90;;;;;;5054948;28;20669;-83
2023/06/14 12:50:02;;;;;;;2.60;2.40;;;19.00;99.90;;;;;;5054331;28;20250;-81
2023/06/14 12:52:28;;;;;;;2.63;2.53;;;18.90;99.90;;;;;;5054010;28;20198;-82